createdAt,value
2022-07-27T00:02:30.386Z,2.88
2022-07-27T00:05:15.661Z,2.95
2022-07-27T00:08:00.859Z,2.50
2022-07-27T00:10:46.859Z,2.83
2022-07-27T00:13:32.310Z,2.58
2022-07-27T00:16:17.621Z,2.50
2022-07-27T00:19:03.212Z,2.63
2022-07-27T00:21:48.128Z,2.90
2022-07-27T00:24:33.642Z,2.80
2022-07-27T00:27:18.688Z,2.65
2022-07-27T00:30:04.416Z,2.60
2022-07-27T00:32:49.900Z,2.70
2022-07-27T00:35:35.797Z,2.78
2022-07-27T00:38:20.976Z,2.85
2022-07-27T00:41:06.208Z,3.15
2022-07-27T00:43:54.096Z,2.60
2022-07-27T00:46:39.457Z,3.35
2022-07-27T00:49:28.849Z,2.80
2022-07-27T00:52:15.570Z,2.80
2022-07-27T00:55:01.167Z,3.15
2022-07-27T00:57:58.423Z,2.55
2022-07-27T01:00:45.522Z,3.35
2022-07-27T01:03:30.842Z,3.25
2022-07-27T01:06:16.557Z,3.70
2022-07-27T01:09:30.546Z,3.72
2022-07-27T01:12:20.770Z,3.05
2022-07-27T01:15:06.634Z,3.30
2022-07-27T01:17:51.923Z,3.08
2022-07-27T01:20:37.479Z,3.05
2022-07-27T01:23:26.274Z,2.65
2022-07-27T01:26:11.284Z,3.40
2022-07-27T01:28:58.127Z,3.55
2022-07-27T01:31:44.466Z,3.15
2022-07-27T01:34:29.969Z,3.17
2022-07-27T01:37:15.057Z,3.10
2022-07-27T01:40:00.471Z,2.60
2022-07-27T01:42:45.651Z,2.83
2022-07-27T01:45:31.298Z,2.83
2022-07-27T01:48:16.212Z,3.00
2022-07-27T01:51:01.559Z,3.30
2022-07-27T01:53:46.859Z,2.85
2022-07-27T01:56:32.296Z,2.72
2022-07-27T01:59:17.774Z,2.80
2022-07-27T02:02:02.785Z,2.58
2022-07-27T02:04:48.099Z,3.00
2022-07-27T02:07:33.350Z,3.25
2022-07-27T02:10:18.638Z,3.05
2022-07-27T02:13:22.456Z,2.80
2022-07-27T02:16:09.670Z,2.50
2022-07-27T02:19:04.616Z,2.55
2022-07-27T02:21:50.106Z,3.42
2022-07-27T02:24:37.781Z,2.40
2022-07-27T02:27:23.041Z,2.70
2022-07-27T02:30:10.027Z,2.30
2022-07-27T02:32:55.358Z,2.60
2022-07-27T02:35:40.566Z,2.55
2022-07-27T02:38:26.058Z,2.80
2022-07-27T02:41:11.343Z,2.40
2022-07-27T02:43:56.550Z,2.45
2022-07-27T02:46:41.934Z,2.50
2022-07-27T02:49:27.199Z,2.30
2022-07-27T02:52:12.378Z,2.85
2022-07-27T02:54:57.652Z,2.33
2022-07-27T02:57:42.894Z,2.67
2022-07-27T03:00:28.257Z,2.70
2022-07-27T03:03:13.685Z,3.05
2022-07-27T03:05:58.594Z,2.83
2022-07-27T03:08:43.823Z,3.00
2022-07-27T03:11:29.242Z,2.75
2022-07-27T03:14:14.491Z,3.30
2022-07-27T03:17:00.709Z,2.90
2022-07-27T03:19:46.001Z,2.90
2022-07-27T03:22:32.614Z,2.78
2022-07-27T03:25:18.126Z,2.88
2022-07-27T03:28:04.382Z,3.53
2022-07-27T03:30:50.258Z,3.15
2022-07-27T03:33:36.384Z,2.90
2022-07-27T03:36:21.622Z,2.75
2022-07-27T03:39:07.432Z,2.92
2022-07-27T03:41:52.711Z,2.83
2022-07-27T03:44:38.006Z,3.00
2022-07-27T03:47:24.960Z,3.08
2022-07-27T03:50:10.114Z,2.65
2022-07-27T03:52:56.257Z,2.85
2022-07-27T03:55:41.328Z,3.08
2022-07-27T03:58:26.617Z,2.80
2022-07-27T04:01:12.034Z,3.05
2022-07-27T04:03:57.134Z,3.33
2022-07-27T04:06:42.370Z,2.58
2022-07-27T04:09:28.526Z,2.85
2022-07-27T04:12:16.679Z,3.38
2022-07-27T04:15:08.648Z,3.15
2022-07-27T04:17:57.076Z,3.00
2022-07-27T04:20:42.912Z,2.90
2022-07-27T04:23:28.127Z,2.92
2022-07-27T04:26:13.447Z,3.30
2022-07-27T04:28:58.646Z,2.72
2022-07-27T04:31:43.842Z,2.65
2022-07-27T04:34:29.284Z,3.10
2022-07-27T04:37:14.411Z,3.22
2022-07-27T04:40:00.361Z,2.92
2022-07-27T04:42:49.834Z,3.08
2022-07-27T04:45:35.332Z,2.97
2022-07-27T04:48:20.622Z,3.30
2022-07-27T04:51:05.754Z,3.13
2022-07-27T04:53:53.972Z,3.03
2022-07-27T04:56:43.738Z,3.20
2022-07-27T04:59:28.942Z,3.05
2022-07-27T05:02:14.398Z,3.13
2022-07-27T05:05:00.292Z,3.00
2022-07-27T05:07:45.433Z,3.40
2022-07-27T05:10:30.473Z,3.13
2022-07-27T05:13:16.587Z,3.00
2022-07-27T05:16:01.630Z,2.90
2022-07-27T05:18:46.801Z,2.78
2022-07-27T05:21:31.939Z,2.40
2022-07-27T05:24:17.251Z,3.15
2022-07-27T05:27:04.231Z,3.03
2022-07-27T05:29:49.765Z,3.20
2022-07-27T05:32:35.430Z,2.90
2022-07-27T05:35:21.732Z,2.72
2022-07-27T05:38:07.131Z,2.85
2022-07-27T05:40:53.171Z,3.03
2022-07-27T05:43:38.111Z,2.80
2022-07-27T05:46:24.783Z,3.20
2022-07-27T05:49:10.325Z,3.00
2022-07-27T05:51:55.850Z,2.85
2022-07-27T05:54:41.667Z,3.53
2022-07-27T05:57:26.554Z,3.10
2022-07-27T06:00:12.610Z,3.03
2022-07-27T06:02:57.557Z,3.25
2022-07-27T06:05:43.047Z,3.47
2022-07-27T06:08:28.259Z,3.00
2022-07-27T06:11:14.411Z,2.92
2022-07-27T06:13:59.740Z,3.42
2022-07-27T06:16:45.032Z,3.40
2022-07-27T06:19:36.349Z,3.10
2022-07-27T06:22:23.559Z,2.80
2022-07-27T06:25:09.127Z,3.25
2022-07-27T06:27:54.132Z,2.67
2022-07-27T06:30:39.384Z,3.35
2022-07-27T06:33:30.956Z,3.17
2022-07-27T06:36:16.469Z,2.75
2022-07-27T06:39:01.763Z,2.88
2022-07-27T06:41:47.432Z,3.03
2022-07-27T06:44:32.545Z,2.92
2022-07-27T06:47:17.945Z,2.50
2022-07-27T06:50:03.997Z,3.00
2022-07-27T06:52:49.535Z,2.50
2022-07-27T06:55:35.112Z,2.97
2022-07-27T06:58:20.364Z,3.20
2022-07-27T07:01:06.000Z,3.08
2022-07-27T07:03:51.272Z,2.58
2022-07-27T07:06:36.807Z,3.05
2022-07-27T07:09:22.101Z,2.10
2022-07-27T07:12:07.407Z,2.20
2022-07-27T07:14:52.556Z,2.90
2022-07-27T07:17:37.732Z,1.80
2022-07-27T07:20:23.487Z,1.90
2022-07-27T07:23:09.622Z,2.30
2022-07-27T07:25:54.923Z,1.90
2022-07-27T07:28:40.510Z,2.50
2022-07-27T07:31:25.943Z,2.33
2022-07-27T07:34:11.333Z,2.53
2022-07-27T07:36:56.669Z,2.60
2022-07-27T07:39:42.228Z,2.22
2022-07-27T07:42:27.289Z,2.97
2022-07-27T07:45:12.503Z,3.58
2022-07-27T07:47:58.074Z,3.15
2022-07-27T07:50:43.336Z,2.63
2022-07-27T07:53:28.781Z,2.38
2022-07-27T07:56:14.282Z,2.35
2022-07-27T07:58:59.528Z,2.35
2022-07-27T08:01:44.552Z,2.22
2022-07-27T08:04:29.520Z,2.13
2022-07-27T08:07:14.683Z,1.80
2022-07-27T08:09:59.778Z,2.13
2022-07-27T08:12:49.954Z,2.20
2022-07-27T08:15:36.529Z,2.50
2022-07-27T08:18:21.785Z,1.60
2022-07-27T08:21:07.134Z,1.50
2022-07-27T08:23:52.287Z,1.30
2022-07-27T08:26:37.437Z,1.50
2022-07-27T08:29:23.265Z,1.10
2022-07-27T08:32:08.423Z,1.17
2022-07-27T08:34:53.661Z,1.55
2022-07-27T08:37:38.621Z,1.63
2022-07-27T08:40:43.039Z,1.20
2022-07-27T08:43:30.748Z,1.50
2022-07-27T08:46:18.564Z,1.60
2022-07-27T08:49:04.778Z,1.27
2022-07-27T08:51:50.728Z,1.05
2022-07-27T08:54:39.123Z,1.05
2022-07-27T08:57:24.313Z,1.02
2022-07-27T09:00:10.205Z,0.90
2022-07-27T09:02:56.613Z,1.20
2022-07-27T09:05:47.148Z,1.02
2022-07-27T09:08:33.802Z,1.42
2022-07-27T09:11:20.009Z,1.13
2022-07-27T09:14:08.146Z,1.38
2022-07-27T09:17:45.146Z,1.00
2022-07-27T09:20:06.585Z,1.10
2022-07-27T09:22:52.889Z,1.27
2022-07-27T09:26:02.317Z,1.05
2022-07-27T09:28:46.493Z,1.25
2022-07-27T09:31:32.581Z,0.80
2022-07-27T09:34:30.427Z,1.15
2022-07-27T09:37:24.115Z,1.10
2022-07-27T09:40:25.469Z,0.88
2022-07-27T09:44:12.239Z,1.02
2022-07-27T09:46:32.970Z,1.00
2022-07-27T09:49:36.305Z,1.08
2022-07-27T09:52:28.123Z,0.95
2022-07-27T09:55:14.210Z,1.00
2022-07-27T09:57:59.367Z,1.02
2022-07-27T10:00:57.362Z,1.10
2022-07-27T10:03:43.631Z,1.10
2022-07-27T10:06:35.723Z,1.08
2022-07-27T10:09:30.989Z,1.10
2022-07-27T10:12:16.384Z,1.30
2022-07-27T10:15:03.866Z,1.20
2022-07-27T10:17:56.778Z,1.17
2022-07-27T10:20:47.526Z,1.00
2022-07-27T10:23:35.229Z,1.10
2022-07-27T10:26:34.859Z,1.30
2022-07-27T10:29:21.344Z,1.48
2022-07-27T10:32:08.802Z,1.00
2022-07-27T10:34:55.361Z,1.10
2022-07-27T10:37:40.530Z,0.95
2022-07-27T10:40:34.524Z,1.10
2022-07-27T10:43:21.874Z,1.25
2022-07-27T10:46:07.265Z,1.05
2022-07-27T10:48:52.573Z,1.27
2022-07-27T10:51:38.184Z,1.13
2022-07-27T10:54:27.132Z,0.80
2022-07-27T10:57:26.172Z,0.95
2022-07-27T11:00:16.360Z,0.95
2022-07-27T11:03:06.117Z,1.02
2022-07-27T11:06:08.951Z,1.00
2022-07-27T11:12:10.365Z,1.30
2022-07-27T11:14:57.645Z,1.38
2022-07-27T11:18:00.376Z,1.25
2022-07-27T11:20:48.973Z,1.15
2022-07-27T11:23:50.942Z,0.90
2022-07-27T11:26:41.905Z,1.30
2022-07-27T11:29:27.118Z,1.00
2022-07-27T11:32:18.211Z,1.17
2022-07-27T11:35:17.817Z,0.90
2022-07-27T11:38:06.508Z,1.15
2022-07-27T11:40:59.894Z,1.02
2022-07-27T11:43:48.019Z,1.05
2022-07-27T11:46:35.687Z,0.98
2022-07-27T11:49:31.151Z,0.90
2022-07-27T11:52:18.406Z,0.77
2022-07-27T11:55:03.862Z,1.25
2022-07-27T11:57:48.929Z,1.10
2022-07-27T12:00:41.523Z,1.63
2022-07-27T12:03:32.197Z,1.10
2022-07-27T12:06:34.402Z,1.30
2022-07-27T12:09:20.222Z,1.33
2022-07-27T12:12:14.187Z,1.30
2022-07-27T12:15:16.317Z,1.50
2022-07-27T12:18:07.416Z,1.23
2022-07-27T12:20:52.761Z,1.10
2022-07-27T12:23:49.750Z,1.40
2022-07-27T12:26:37.319Z,1.45
2022-07-27T12:29:22.784Z,1.25
2022-07-27T12:32:07.833Z,1.30
2022-07-27T12:34:53.899Z,1.40
2022-07-27T12:37:42.508Z,0.90
2022-07-27T12:40:29.232Z,1.17
2022-07-27T12:43:20.053Z,1.25
2022-07-27T12:46:13.471Z,1.23
2022-07-27T12:48:58.611Z,1.27
2022-07-27T12:51:44.110Z,1.33
2022-07-27T12:54:29.313Z,1.27
2022-07-27T12:57:20.976Z,1.40
2022-07-27T13:00:19.237Z,1.40
2022-07-27T13:03:05.571Z,1.10
2022-07-27T13:05:50.593Z,1.02
2022-07-27T13:08:36.517Z,1.23
2022-07-27T13:11:21.471Z,1.23
2022-07-27T13:14:07.697Z,1.10
2022-07-27T13:16:52.668Z,1.00
2022-07-27T13:19:37.869Z,1.20
2022-07-27T13:22:23.434Z,1.08
2022-07-27T13:25:15.910Z,0.85
2022-07-27T13:28:02.007Z,1.02
2022-07-27T13:30:47.269Z,1.20
2022-07-27T13:33:32.803Z,1.70
2022-07-27T13:36:18.027Z,1.08
2022-07-27T13:39:03.347Z,0.85
2022-07-27T13:41:52.722Z,1.10
2022-07-27T13:45:03.714Z,0.93
2022-07-27T13:47:45.971Z,0.95
2022-07-27T13:50:30.924Z,1.45
2022-07-27T13:53:17.336Z,1.00
2022-07-27T13:56:03.118Z,1.25
2022-07-27T13:58:48.284Z,1.13
2022-07-27T14:01:35.639Z,1.33
2022-07-27T14:04:24.906Z,1.35
2022-07-27T14:07:10.786Z,1.20
2022-07-27T14:10:19.034Z,1.00
2022-07-27T14:13:08.492Z,1.10
2022-07-27T14:15:55.353Z,1.17
2022-07-27T14:18:41.164Z,1.00
2022-07-27T14:21:26.389Z,1.23
2022-07-27T14:24:11.319Z,1.38
2022-07-27T14:26:57.707Z,0.98
2022-07-27T14:29:42.641Z,1.00
2022-07-27T14:32:27.784Z,0.90
2022-07-27T14:35:12.769Z,1.15
2022-07-27T14:38:00.099Z,1.38
2022-07-27T14:40:45.956Z,0.80
2022-07-27T14:43:31.887Z,0.93
2022-07-27T14:46:17.225Z,1.27
2022-07-27T14:49:06.134Z,0.90
2022-07-27T14:51:51.686Z,1.00
2022-07-27T14:54:37.886Z,0.80
2022-07-27T14:57:23.296Z,0.95
2022-07-27T15:00:15.944Z,0.80
2022-07-27T15:03:00.906Z,1.33
2022-07-27T15:05:49.722Z,0.82
2022-07-27T15:08:36.096Z,1.10
2022-07-27T15:11:21.465Z,1.00
2022-07-27T15:14:06.707Z,1.10
2022-07-27T15:16:52.890Z,0.90
2022-07-27T15:19:37.814Z,1.27
2022-07-27T15:22:23.500Z,1.20
2022-07-27T15:25:12.341Z,0.80
2022-07-27T15:27:57.666Z,1.00
2022-07-27T15:30:42.998Z,0.88
2022-07-27T15:33:28.221Z,1.10
2022-07-27T15:36:31.335Z,0.88
2022-07-27T15:39:20.848Z,1.55
2022-07-27T15:42:07.638Z,1.00
2022-07-27T15:44:52.653Z,1.13
2022-07-27T15:47:53.704Z,0.86
2022-07-27T15:50:40.342Z,0.82
2022-07-27T15:53:27.064Z,1.20
2022-07-27T15:56:11.925Z,0.80
2022-07-27T15:58:57.278Z,0.85
2022-07-27T16:01:42.785Z,0.85
2022-07-27T16:04:28.178Z,0.63
2022-07-27T16:07:13.508Z,0.65
2022-07-27T16:09:58.706Z,0.95
2022-07-27T16:12:44.014Z,0.90
2022-07-27T16:15:48.586Z,1.10
2022-07-27T16:18:38.629Z,1.25
2022-07-27T16:21:25.128Z,0.80
2022-07-27T16:24:10.899Z,0.75
2022-07-27T16:26:56.420Z,0.80
2022-07-27T16:29:41.802Z,0.85
2022-07-27T16:32:27.195Z,0.65
2022-07-27T16:35:12.742Z,0.93
2022-07-27T16:37:57.966Z,0.80
2022-07-27T16:40:43.342Z,0.55
2022-07-27T16:43:36.313Z,1.20
2022-07-27T16:46:24.332Z,0.95
2022-07-27T16:49:10.469Z,0.82
2022-07-27T16:51:55.773Z,0.73
2022-07-27T16:54:40.801Z,0.70
2022-07-27T16:57:26.701Z,0.80
2022-07-27T17:00:12.192Z,1.23
2022-07-27T17:02:57.450Z,0.70
2022-07-27T17:05:42.595Z,0.77
2022-07-27T17:08:28.229Z,0.70
2022-07-27T17:11:13.598Z,1.05
2022-07-27T17:13:59.750Z,0.98
2022-07-27T17:16:51.995Z,0.88
2022-07-27T17:19:37.625Z,1.02
2022-07-27T17:22:22.790Z,1.20
2022-07-27T17:25:08.049Z,1.55
2022-07-27T17:27:53.204Z,1.20
2022-07-27T17:30:38.559Z,1.52
2022-07-27T17:33:23.474Z,1.48
2022-07-27T17:36:15.038Z,1.02
2022-07-27T17:39:01.427Z,1.13
2022-07-27T17:41:46.861Z,0.93
2022-07-27T17:44:37.944Z,0.60
2022-07-27T17:47:22.885Z,0.90
2022-07-27T17:50:08.575Z,1.00
2022-07-27T17:52:56.829Z,0.70
2022-07-27T17:55:41.851Z,0.70
2022-07-27T17:58:30.252Z,0.80
2022-07-27T18:01:15.778Z,0.70
2022-07-27T18:04:00.901Z,1.00
2022-07-27T18:06:46.272Z,1.20
2022-07-27T18:09:31.183Z,0.90
2022-07-27T18:12:21.448Z,0.65
2022-07-27T18:15:26.061Z,0.77
2022-07-27T18:18:11.392Z,0.90
2022-07-27T18:20:57.727Z,0.70
2022-07-27T18:23:42.946Z,0.80
2022-07-27T18:26:28.090Z,0.90
2022-07-27T18:29:16.066Z,0.93
2022-07-27T18:32:01.523Z,1.20
2022-07-27T18:34:47.868Z,3.30
2022-07-27T18:37:33.168Z,0.98
2022-07-27T18:40:18.642Z,1.40
2022-07-27T18:43:05.083Z,6.90
2022-07-27T18:45:50.045Z,3.80
2022-07-27T18:48:35.371Z,2.88
2022-07-27T18:51:20.508Z,2.00
2022-07-27T18:54:05.956Z,1.23
2022-07-27T18:56:51.117Z,0.68
2022-07-27T18:59:41.316Z,0.82
2022-07-27T19:02:26.781Z,1.00
2022-07-27T19:05:12.273Z,1.08
2022-07-27T19:08:00.413Z,1.60
2022-07-27T19:10:45.724Z,2.00
2022-07-27T19:13:30.894Z,1.75
2022-07-27T19:16:15.983Z,1.55
2022-07-27T19:19:01.793Z,1.38
2022-07-27T19:21:47.499Z,1.40
2022-07-27T19:24:32.594Z,1.23
2022-07-27T19:27:17.943Z,1.50
2022-07-27T19:30:03.899Z,2.30
2022-07-27T19:32:49.074Z,1.85
2022-07-27T19:35:34.381Z,1.10
2022-07-27T19:38:19.662Z,0.80
2022-07-27T19:41:04.942Z,0.93
2022-07-27T19:43:50.219Z,1.33
2022-07-27T19:46:35.678Z,1.02
2022-07-27T19:49:22.900Z,0.80
2022-07-27T19:52:08.198Z,1.20
2022-07-27T19:54:53.354Z,1.00
2022-07-27T19:57:38.755Z,0.80
2022-07-27T20:00:24.229Z,0.90
2022-07-27T20:03:09.378Z,0.75
2022-07-27T20:05:54.685Z,1.23
2022-07-27T20:08:39.954Z,1.02
2022-07-27T20:11:25.712Z,1.13
2022-07-27T20:14:10.831Z,1.10
2022-07-27T20:16:55.968Z,1.23
2022-07-27T20:19:41.011Z,1.08
2022-07-27T20:22:26.256Z,1.50
2022-07-27T20:25:14.749Z,2.25
2022-07-27T20:27:59.983Z,1.02
2022-07-27T20:30:45.341Z,0.82
2022-07-27T20:33:32.909Z,0.90
2022-07-27T20:36:17.950Z,1.08
2022-07-27T20:39:07.387Z,1.10
2022-07-27T20:41:52.664Z,1.02
2022-07-27T20:44:37.684Z,1.10
2022-07-27T20:47:23.115Z,0.90
2022-07-27T20:50:11.506Z,1.17
2022-07-27T20:52:58.076Z,1.08
2022-07-27T20:55:44.071Z,1.20
2022-07-27T20:58:29.042Z,1.33
2022-07-27T21:01:15.129Z,1.00
2022-07-27T21:04:00.696Z,1.00
2022-07-27T21:06:46.158Z,0.75
2022-07-27T21:09:31.635Z,1.05
2022-07-27T21:12:16.518Z,1.40
2022-07-27T21:15:01.799Z,1.02
2022-07-27T21:17:46.978Z,1.30
2022-07-27T21:20:32.340Z,1.10
2022-07-27T21:23:36.080Z,1.60
2022-07-27T21:26:21.480Z,1.00
2022-07-27T21:29:09.233Z,1.40
2022-07-27T21:31:54.254Z,1.35
2022-07-27T21:34:39.556Z,1.00
2022-07-27T21:37:24.711Z,1.20
2022-07-27T21:40:10.833Z,1.02
2022-07-27T21:42:55.765Z,1.40
2022-07-27T21:45:41.206Z,1.20
2022-07-27T21:48:34.878Z,0.93
2022-07-27T21:51:21.510Z,1.02
2022-07-27T21:54:06.905Z,0.95
2022-07-27T21:56:52.250Z,1.10
2022-07-27T21:59:37.454Z,0.88
2022-07-27T22:02:22.774Z,1.23
2022-07-27T22:05:13.544Z,1.10
2022-07-27T22:08:00.098Z,1.10
2022-07-27T22:10:45.099Z,1.23
2022-07-27T22:13:31.966Z,1.02
2022-07-27T22:16:17.121Z,1.58
2022-07-27T22:19:02.377Z,1.23
2022-07-27T22:21:47.520Z,1.23
2022-07-27T22:24:32.880Z,1.15
2022-07-27T22:27:18.102Z,1.20
2022-07-27T22:30:03.811Z,1.10
2022-07-27T22:32:48.897Z,0.80
2022-07-27T22:35:34.771Z,0.75
2022-07-27T22:38:20.078Z,1.10
2022-07-27T22:41:05.313Z,1.17
2022-07-27T22:43:50.866Z,1.10
2022-07-27T22:46:35.833Z,1.30
2022-07-27T22:49:22.673Z,1.30
2022-07-27T22:52:08.159Z,1.08
2022-07-27T22:54:53.206Z,1.50
2022-07-27T22:57:38.410Z,0.85
2022-07-27T23:00:23.953Z,1.00
2022-07-27T23:03:09.170Z,1.33
2022-07-27T23:05:54.546Z,0.82
2022-07-27T23:08:39.753Z,0.90
2022-07-27T23:11:25.972Z,0.95
2022-07-27T23:14:12.900Z,0.90
2022-07-27T23:16:58.342Z,1.23
2022-07-27T23:19:43.759Z,1.20
2022-07-27T23:22:28.927Z,1.30
2022-07-27T23:25:14.727Z,1.10
2022-07-27T23:28:00.196Z,0.82
2022-07-27T23:30:45.263Z,1.10
2022-07-27T23:33:30.642Z,1.17
2022-07-27T23:36:15.906Z,1.10
2022-07-27T23:39:01.608Z,1.40
2022-07-27T23:41:49.795Z,1.30
2022-07-27T23:44:35.312Z,1.55
2022-07-27T23:47:20.932Z,1.55
2022-07-27T23:50:07.126Z,1.20
2022-07-27T23:52:52.243Z,1.38
2022-07-27T23:55:37.691Z,1.55
2022-07-27T23:58:22.863Z,1.30
